This is the latest recevied weather packets stored in our database for station/object YM2KRB-11. If no packets are shown the sender has not sent any weather packets the latest 1 day(s).
| Time | Temp. | Humidity | Pressure | Rain* | Wind** | Luminosity | Snow |
|---|---|---|---|---|---|---|---|
| 1777897391 | 13.33° C | 54% | 935 hPa | - | - | - | - |
| 1777896190 | 14.44° C | 50% | 934.9 hPa | - | - | - | - |
| 1777894989 | 13.33° C | 49% | 934.7 hPa | - | - | - | - |
| 1777893789 | 13.33° C | 47% | 934.5 hPa | - | - | - | - |
| 1777892588 | 12.78° C | 47% | 934.3 hPa | - | - | - | - |
| 1777891387 | 14.44° C | 45% | 934.2 hPa | - | - | - | - |
| 1777890186 | 16.11° C | 42% | 933.9 hPa | - | - | - | - |
| 1777888985 | 18.33° C | 37% | 933.8 hPa | - | - | - | - |
| 1777887785 | 22.22° C | 33% | 933.7 hPa | - | - | - | - |
| 1777886583 | 22.22° C | 32% | 933.8 hPa | - | - | - | - |
| 1777885382 | 19.44° C | 37% | 933.7 hPa | - | - | - | - |
| 1777884182 | 17.78° C | 40% | 933.7 hPa | - | - | - | - |
| 1777882981 | 18.89° C | 39% | 933.7 hPa | - | - | - | - |
| 1777881780 | 17.22° C | 43% | 933.7 hPa | - | - | - | - |
| 1777880579 | 17.22° C | 44% | 933.5 hPa | - | - | - | - |
| 1777879378 | 16.67° C | 44% | 933.4 hPa | - | - | - | - |
| 1777878178 | 16.11° C | 45% | 933.3 hPa | - | - | - | - |
| 1777876977 | 16.11° C | 51% | 933.1 hPa | - | - | - | - |
| 1777875776 | 15° C | 53% | 933.2 hPa | - | - | - | - |
| 1777874575 | 14.44° C | 54% | 933.2 hPa | - | - | - | - |
| 1777873375 | 13.33° C | 56% | 933.4 hPa | - | - | - | - |
| 1777872174 | 17.78° C | 56% | 933.5 hPa | - | - | - | - |
| 1777870973 | 10° C | 67% | 933.4 hPa | - | - | - | - |
| 1777869772 | 9.44° C | 71% | 933.2 hPa | - | - | - | - |
| 1777868571 | 12.22° C | 61% | 933 hPa | - | - | - | - |
* Rain since midnight (hover to see other rain measurements)
** Current wind speed in m/s (hover to see current wind gust speed)